createdAt,value
2019-01-28T00:01:08.008Z,77.39
2019-01-28T00:05:08.034Z,77.31
2019-01-28T00:07:03.067Z,77.14
2019-01-28T00:11:03.046Z,77.34
2019-01-28T00:13:03.125Z,77.92
2019-01-28T00:17:03.017Z,77.37
2019-01-28T00:19:03.028Z,77.57
2019-01-28T00:23:03.051Z,77.41
2019-01-28T00:25:05.010Z,77.72
2019-01-28T00:29:03.065Z,77.53
2019-01-28T00:31:07.484Z,77.56
2019-01-28T00:35:07.990Z,77.40
2019-01-28T00:37:03.079Z,77.81
2019-01-28T00:41:03.074Z,77.56
2019-01-28T00:43:03.047Z,77.53
2019-01-28T00:47:03.087Z,77.48
2019-01-28T00:49:07.827Z,77.49
2019-01-28T00:53:04.951Z,77.37
2019-01-28T00:55:08.075Z,77.50
2019-01-28T00:59:03.098Z,77.39
2019-01-28T01:01:03.119Z,77.25
2019-01-28T01:07:03.138Z,77.20
2019-01-28T01:09:03.153Z,77.41
2019-01-28T01:13:08.150Z,77.56
2019-01-28T01:15:08.163Z,77.48
2019-01-28T01:19:03.126Z,77.39
2019-01-28T01:21:03.163Z,77.36
2019-01-28T01:25:08.081Z,77.04
2019-01-28T01:27:03.169Z,77.31
2019-01-28T01:31:03.158Z,77.61
2019-01-28T01:33:03.225Z,77.52
2019-01-28T01:37:03.153Z,77.46
2019-01-28T01:39:07.004Z,77.35
2019-01-28T01:43:08.333Z,77.39
2019-01-28T01:45:03.232Z,77.29
2019-01-28T01:49:08.163Z,77.37
2019-01-28T01:51:03.219Z,77.32
2019-01-28T01:55:03.192Z,77.18
2019-01-28T01:57:03.223Z,77.56
2019-01-28T02:01:03.225Z,77.47
2019-01-28T02:03:03.192Z,77.38
2019-01-28T02:07:12.031Z,77.46
2019-01-28T02:09:03.277Z,76.94
2019-01-28T02:13:03.208Z,77.49
2019-01-28T02:15:03.272Z,77.59
2019-01-28T02:19:03.244Z,77.33
2019-01-28T02:21:08.238Z,77.16
2019-01-28T02:25:03.236Z,77.34
2019-01-28T02:27:03.225Z,77.28
2019-01-28T02:31:03.260Z,77.56
2019-01-28T02:33:07.841Z,77.47
2019-01-28T02:37:03.232Z,77.89
2019-01-28T02:39:08.279Z,77.56
2019-01-28T02:43:03.215Z,77.59
2019-01-28T02:45:03.252Z,77.69
2019-01-28T02:49:03.273Z,77.63
2019-01-28T02:51:03.278Z,77.85
2019-01-28T02:55:03.252Z,78.02
2019-01-28T02:57:03.308Z,78.15
2019-01-28T03:01:03.282Z,77.98
2019-01-28T03:03:08.024Z,77.94
2019-01-28T03:07:03.284Z,78.14
2019-01-28T03:09:03.283Z,77.77
2019-01-28T03:13:03.270Z,77.90
2019-01-28T03:15:03.283Z,78.23
2019-01-28T03:19:03.304Z,77.87
2019-01-28T03:21:07.107Z,78.06
2019-01-28T03:25:03.312Z,77.92
2019-01-28T03:27:07.767Z,78.36
2019-01-28T03:31:03.347Z,78.18
2019-01-28T03:33:08.321Z,77.83
2019-01-28T03:37:03.311Z,78.38
2019-01-28T03:39:07.850Z,78.27
2019-01-28T03:43:03.320Z,77.90
2019-01-28T03:45:07.776Z,78.23
2019-01-28T03:49:03.397Z,78.05
2019-01-28T03:51:03.306Z,78.24
2019-01-28T03:55:08.374Z,78.27
2019-01-28T03:57:07.752Z,77.95
2019-01-28T04:01:03.331Z,77.94
2019-01-28T04:03:03.335Z,78.28
2019-01-28T04:07:03.350Z,77.91
2019-01-28T04:09:03.346Z,77.97
2019-01-28T04:13:03.354Z,77.93
2019-01-28T04:15:03.347Z,77.99
2019-01-28T04:19:03.337Z,77.71
2019-01-28T04:21:03.367Z,78.26
2019-01-28T04:25:08.540Z,77.98
2019-01-28T04:27:03.371Z,77.87
2019-01-28T04:31:03.351Z,77.75
2019-01-28T04:33:03.385Z,77.67
2019-01-28T04:37:03.337Z,77.83
2019-01-28T04:39:03.376Z,77.91
2019-01-28T04:43:03.374Z,77.85
2019-01-28T04:45:07.940Z,78.33
2019-01-28T04:49:03.411Z,77.93
2019-01-28T04:51:03.397Z,78.09
2019-01-28T04:55:03.398Z,77.80
2019-01-28T04:57:08.002Z,78.00
2019-01-28T05:01:03.406Z,77.87
2019-01-28T05:03:03.436Z,77.73
2019-01-28T05:07:03.400Z,78.18
2019-01-28T05:09:03.397Z,77.92
2019-01-28T05:13:08.616Z,77.92
2019-01-28T05:15:08.380Z,77.85
2019-01-28T05:19:03.425Z,77.61
2019-01-28T05:21:03.467Z,77.76
2019-01-28T05:25:03.426Z,77.83
2019-01-28T05:27:03.479Z,78.01
2019-01-28T05:31:03.448Z,78.18
2019-01-28T05:33:03.467Z,77.75
2019-01-28T05:37:08.516Z,77.73
2019-01-28T05:39:08.461Z,78.12
2019-01-28T05:43:04.810Z,77.71
2019-01-28T05:45:08.468Z,77.87
2019-01-28T05:49:03.481Z,78.13
2019-01-28T05:51:03.454Z,78.08
2019-01-28T05:55:03.475Z,78.24
2019-01-28T05:57:03.493Z,78.02
2019-01-28T06:01:08.499Z,78.22
2019-01-28T06:03:05.353Z,78.19
2019-01-28T06:07:03.537Z,78.25
2019-01-28T06:09:10.306Z,78.26
2019-01-28T06:13:03.534Z,78.32
2019-01-28T06:15:03.485Z,78.12
2019-01-28T06:19:03.525Z,78.30
2019-01-28T06:23:03.527Z,78.29
2019-01-28T06:25:08.037Z,78.26
2019-01-28T06:29:08.571Z,78.03
2019-01-28T06:31:06.223Z,78.21
2019-01-28T06:35:03.541Z,78.00
2019-01-28T06:37:03.529Z,78.09
2019-01-28T06:41:03.532Z,78.00
2019-01-28T06:43:03.584Z,77.96
2019-01-28T06:47:03.573Z,78.28
2019-01-28T06:49:03.538Z,77.98
2019-01-28T06:53:08.204Z,78.01
2019-01-28T06:55:03.624Z,78.39
2019-01-28T06:59:03.654Z,78.13
2019-01-28T07:01:08.543Z,78.19
2019-01-28T07:05:03.587Z,78.02
2019-01-28T07:07:08.624Z,78.23
2019-01-28T07:11:03.567Z,78.43
2019-01-28T07:13:07.259Z,78.30
2019-01-28T07:17:07.386Z,78.36
2019-01-28T07:19:03.616Z,77.96
2019-01-28T07:23:07.335Z,78.28
2019-01-28T07:25:06.059Z,78.36
2019-01-28T07:29:08.345Z,78.03
2019-01-28T07:31:07.858Z,77.70
2019-01-28T07:35:08.281Z,78.06
2019-01-28T07:37:03.658Z,77.90
2019-01-28T07:41:03.612Z,78.15
2019-01-28T07:43:03.615Z,77.89
2019-01-28T07:47:03.630Z,78.25
2019-01-28T07:49:08.146Z,78.59
2019-01-28T07:53:03.664Z,78.05
2019-01-28T07:55:03.633Z,78.07
2019-01-28T07:59:03.631Z,78.37
2019-01-28T08:01:08.813Z,77.99
2019-01-28T08:05:08.131Z,77.85
2019-01-28T08:07:03.646Z,77.84
2019-01-28T08:11:03.649Z,78.07
2019-01-28T08:13:03.643Z,78.11
2019-01-28T08:17:03.658Z,78.19
2019-01-28T08:19:03.678Z,78.12
2019-01-28T08:23:03.653Z,78.50
2019-01-28T08:25:07.562Z,78.19
2019-01-28T08:29:03.655Z,78.31
2019-01-28T08:31:03.674Z,77.59
2019-01-28T08:35:03.690Z,78.12
2019-01-28T08:37:07.464Z,78.20
2019-01-28T08:41:03.680Z,78.24
2019-01-28T08:43:03.683Z,78.05
2019-01-28T08:47:03.740Z,78.12
2019-01-28T08:49:08.694Z,78.15
2019-01-28T08:53:03.682Z,78.02
2019-01-28T08:55:03.726Z,78.34
2019-01-28T08:59:03.745Z,78.02
2019-01-28T09:01:03.711Z,78.21
2019-01-28T09:05:05.566Z,78.18
2019-01-28T09:07:03.755Z,77.96
2019-01-28T09:11:03.726Z,78.21
2019-01-28T09:13:03.770Z,77.97
2019-01-28T09:17:03.725Z,78.04
2019-01-28T09:19:03.760Z,78.24
2019-01-28T09:23:03.756Z,78.07
2019-01-28T09:25:03.735Z,77.88
2019-01-28T09:29:03.744Z,78.10
2019-01-28T09:31:03.802Z,77.87
2019-01-28T09:35:03.756Z,77.75
2019-01-28T09:37:08.287Z,77.71
2019-01-28T09:41:03.776Z,78.19
2019-01-28T09:43:03.805Z,77.12
2019-01-28T09:47:03.767Z,77.46
2019-01-28T09:49:14.116Z,77.73
2019-01-28T09:53:03.803Z,77.82
2019-01-28T09:55:09.041Z,78.07
2019-01-28T09:59:03.801Z,77.93
2019-01-28T10:01:03.797Z,77.42
2019-01-28T10:05:03.775Z,77.97
2019-01-28T10:07:08.496Z,77.83
2019-01-28T10:11:07.553Z,77.39
2019-01-28T10:15:03.789Z,77.66
2019-01-28T10:17:07.567Z,77.55
2019-01-28T10:21:03.781Z,78.40
2019-01-28T10:23:07.420Z,77.38
2019-01-28T10:27:03.875Z,77.68
2019-01-28T10:29:03.824Z,77.64
2019-01-28T10:33:03.837Z,77.59
2019-01-28T10:35:03.822Z,77.62
2019-01-28T10:39:04.600Z,77.66
2019-01-28T10:41:03.805Z,77.48
2019-01-28T10:45:03.835Z,77.53
2019-01-28T10:47:03.832Z,77.54
2019-01-28T10:51:07.481Z,77.69
2019-01-28T10:53:08.479Z,77.51
2019-01-28T10:57:03.884Z,77.71
2019-01-28T10:59:03.884Z,77.57
2019-01-28T11:03:08.801Z,77.52
2019-01-28T11:05:03.848Z,77.63
2019-01-28T11:09:03.906Z,77.54
2019-01-28T11:11:05.908Z,77.62
2019-01-28T11:15:04.021Z,77.52
2019-01-28T11:17:03.944Z,77.90
2019-01-28T11:21:03.952Z,77.36
2019-01-28T11:25:03.986Z,77.26
2019-01-28T11:27:04.022Z,77.71
2019-01-28T11:31:08.224Z,77.36
2019-01-28T11:33:03.942Z,77.77
2019-01-28T11:37:04.037Z,77.41
2019-01-28T11:39:07.676Z,77.64
2019-01-28T11:43:12.332Z,77.51
2019-01-28T11:45:04.092Z,77.44
2019-01-28T11:49:05.914Z,77.55
2019-01-28T11:51:03.897Z,77.67
2019-01-28T11:55:03.920Z,77.57
2019-01-28T11:57:03.950Z,77.17
2019-01-28T12:01:03.958Z,77.28
2019-01-28T12:03:08.955Z,77.75
2019-01-28T12:07:06.273Z,77.45
2019-01-28T12:09:03.955Z,77.60
2019-01-28T12:13:08.925Z,77.33
2019-01-28T12:15:03.964Z,77.40
2019-01-28T12:19:03.911Z,77.22
2019-01-28T12:21:03.977Z,77.43
2019-01-28T12:25:03.935Z,77.70
2019-01-28T12:27:03.940Z,77.38
2019-01-28T12:31:09.873Z,77.27
2019-01-28T12:33:03.978Z,77.36
2019-01-28T12:37:03.939Z,77.27
2019-01-28T12:39:03.976Z,77.05
2019-01-28T12:43:03.951Z,77.35
2019-01-28T12:45:07.600Z,77.43
2019-01-28T12:49:08.551Z,77.03
2019-01-28T12:51:04.023Z,77.34
2019-01-28T12:55:04.009Z,77.27
2019-01-28T12:57:08.599Z,76.74
2019-01-28T13:01:04.016Z,77.26
2019-01-28T13:03:04.023Z,77.30
2019-01-28T13:07:07.882Z,77.55
2019-01-28T13:09:04.034Z,77.28
2019-01-28T13:13:08.596Z,77.25
2019-01-28T13:15:04.047Z,77.46
2019-01-28T13:19:04.057Z,77.24
2019-01-28T13:21:04.077Z,77.14
2019-01-28T13:25:04.053Z,77.16
2019-01-28T13:27:04.039Z,77.12
2019-01-28T13:31:04.040Z,77.31
2019-01-28T13:33:04.039Z,77.04
2019-01-28T13:37:04.089Z,77.31
2019-01-28T13:41:04.104Z,77.04
2019-01-28T13:43:04.115Z,77.29
2019-01-28T13:47:04.202Z,77.02
2019-01-28T13:49:04.142Z,76.81
2019-01-28T13:53:04.136Z,77.12
2019-01-28T13:55:04.097Z,77.28
2019-01-28T13:59:04.132Z,77.14
2019-01-28T14:01:09.090Z,77.21
2019-01-28T14:05:04.144Z,77.00
2019-01-28T14:07:04.140Z,77.19
2019-01-28T14:11:04.256Z,77.17
2019-01-28T14:13:04.164Z,77.40
2019-01-28T14:17:04.157Z,77.26
2019-01-28T14:19:04.172Z,76.93
2019-01-28T14:23:04.211Z,77.15
2019-01-28T14:25:04.193Z,77.15
2019-01-28T14:29:04.234Z,76.80
2019-01-28T14:31:04.211Z,77.11
2019-01-28T14:35:04.250Z,76.75
2019-01-28T14:37:04.228Z,77.32
2019-01-28T14:41:04.230Z,76.81
2019-01-28T14:43:04.371Z,77.01
2019-01-28T14:47:04.268Z,77.06
2019-01-28T14:49:04.243Z,76.93
2019-01-28T14:53:04.281Z,77.00
2019-01-28T14:55:04.257Z,76.97
2019-01-28T14:59:04.281Z,77.07
2019-01-28T15:01:04.283Z,76.92
2019-01-28T15:05:15.259Z,76.90
2019-01-28T15:07:08.939Z,77.29
2019-01-28T15:11:04.443Z,76.97
2019-01-28T15:13:04.287Z,77.20
2019-01-28T15:17:04.300Z,76.68
2019-01-28T15:19:08.019Z,77.20
2019-01-28T15:23:04.323Z,76.70
2019-01-28T15:25:04.336Z,77.07
2019-01-28T15:31:08.012Z,76.60
2019-01-28T15:33:09.155Z,76.77
2019-01-28T15:37:04.306Z,76.82
2019-01-28T15:39:04.306Z,76.81
2019-01-28T15:43:10.505Z,76.67
2019-01-28T15:45:11.206Z,77.18
2019-01-28T15:49:04.371Z,76.36
2019-01-28T15:51:04.354Z,76.76
2019-01-28T15:55:04.507Z,76.94
2019-01-28T15:57:09.543Z,76.94
2019-01-28T16:01:08.185Z,76.95
2019-01-28T16:03:08.849Z,76.58
2019-01-28T16:07:10.284Z,76.51
2019-01-28T16:09:04.399Z,76.49
2019-01-28T16:13:04.386Z,76.92
2019-01-28T16:15:04.401Z,76.80
2019-01-28T16:19:04.355Z,76.69
2019-01-28T16:21:04.470Z,76.87
2019-01-28T16:25:08.768Z,76.59
2019-01-28T16:29:08.153Z,76.49
2019-01-28T16:31:04.390Z,77.00
2019-01-28T16:35:04.403Z,76.81
2019-01-28T16:37:04.391Z,77.00
2019-01-28T16:41:04.382Z,76.50
2019-01-28T16:43:06.489Z,76.58
2019-01-28T16:47:05.441Z,76.70
2019-01-28T16:49:04.430Z,76.60
2019-01-28T16:53:04.385Z,76.64
2019-01-28T16:55:04.399Z,76.55
2019-01-28T16:59:04.433Z,76.63
2019-01-28T17:01:09.426Z,76.45
2019-01-28T17:05:09.626Z,76.19
2019-01-28T17:09:04.426Z,76.53
2019-01-28T17:11:06.632Z,76.04
2019-01-28T17:15:09.639Z,76.59
2019-01-28T17:17:05.856Z,76.03
2019-01-28T17:21:09.447Z,76.35
2019-01-28T17:23:09.174Z,76.36
2019-01-28T17:27:04.493Z,76.24
2019-01-28T17:29:04.482Z,76.43
2019-01-28T17:33:06.863Z,76.46
2019-01-28T17:35:08.785Z,76.39
2019-01-28T17:39:08.916Z,76.67
2019-01-28T17:41:04.447Z,76.54
2019-01-28T17:45:04.476Z,76.22
2019-01-28T17:47:04.476Z,76.57
2019-01-28T17:53:04.483Z,76.06
2019-01-28T17:55:08.913Z,76.53
2019-01-28T17:59:04.479Z,76.33
2019-01-28T18:01:06.310Z,76.40
2019-01-28T18:05:04.494Z,76.47
2019-01-28T18:07:04.470Z,76.45
2019-01-28T18:13:04.504Z,76.16
2019-01-28T18:15:06.564Z,76.30
2019-01-28T18:19:04.484Z,76.45
2019-01-28T18:21:04.471Z,76.24
2019-01-28T18:25:04.473Z,76.37
2019-01-28T18:27:04.494Z,76.54
2019-01-28T18:31:04.513Z,76.29
2019-01-28T18:33:04.475Z,76.28
2019-01-28T18:37:08.705Z,76.30
2019-01-28T18:39:04.500Z,76.23
2019-01-28T18:43:04.552Z,76.08
2019-01-28T18:45:05.670Z,76.12
2019-01-28T18:49:04.504Z,76.43
2019-01-28T18:51:04.494Z,76.18
2019-01-28T18:55:04.510Z,76.04
2019-01-28T18:57:04.553Z,76.09
2019-01-28T19:01:04.528Z,76.37
2019-01-28T19:03:08.287Z,76.09
2019-01-28T19:07:04.553Z,76.16
2019-01-28T19:09:08.329Z,76.15
2019-01-28T19:13:09.121Z,76.06
2019-01-28T19:15:05.326Z,76.01
2019-01-28T19:19:04.511Z,76.19
2019-01-28T19:21:08.216Z,76.09
2019-01-28T19:25:04.507Z,76.04
2019-01-28T19:27:04.561Z,75.96
2019-01-28T19:31:06.775Z,76.08
2019-01-28T19:33:08.140Z,76.11
2019-01-28T19:37:04.523Z,76.11
2019-01-28T19:39:04.547Z,76.01
2019-01-28T19:43:04.595Z,76.04
2019-01-28T19:45:04.571Z,76.14
2019-01-28T19:49:04.606Z,76.06
2019-01-28T19:51:04.567Z,76.04
2019-01-28T19:55:06.797Z,76.05
2019-01-28T19:57:04.776Z,75.91
2019-01-28T20:01:04.570Z,75.86
2019-01-28T20:03:04.611Z,76.44
2019-01-28T20:07:07.095Z,76.03
2019-01-28T20:09:04.608Z,75.83
2019-01-28T20:13:07.026Z,75.82
2019-01-28T20:15:04.625Z,76.08
2019-01-28T20:19:04.624Z,75.74
2019-01-28T20:21:08.355Z,75.88
2019-01-28T20:25:04.667Z,75.76
2019-01-28T20:27:08.396Z,75.89
2019-01-28T20:31:04.671Z,75.69
2019-01-28T20:33:04.673Z,75.95
2019-01-28T20:37:04.701Z,75.97
2019-01-28T20:39:08.438Z,75.70
2019-01-28T20:43:04.857Z,75.79
2019-01-28T20:45:04.726Z,75.94
2019-01-28T20:49:04.724Z,75.92
2019-01-28T20:51:09.717Z,75.80
2019-01-28T20:55:05.522Z,76.04
2019-01-28T20:57:08.474Z,75.98
2019-01-28T21:01:04.700Z,75.88
2019-01-28T21:03:04.748Z,75.69
2019-01-28T21:07:04.708Z,75.85
2019-01-28T21:09:04.736Z,75.84
2019-01-28T21:13:08.488Z,75.73
2019-01-28T21:15:04.856Z,75.89
2019-01-28T21:19:08.456Z,75.94
2019-01-28T21:21:04.733Z,75.77
2019-01-28T21:25:04.742Z,75.68
2019-01-28T21:27:04.716Z,75.90
2019-01-28T21:31:04.769Z,75.93
2019-01-28T21:33:08.382Z,75.86
2019-01-28T21:37:09.761Z,75.90
2019-01-28T21:39:07.037Z,75.85
2019-01-28T21:43:09.759Z,75.68
2019-01-28T21:45:04.738Z,75.76
2019-01-28T21:49:04.852Z,75.71
2019-01-28T21:51:06.921Z,76.06
2019-01-28T21:55:04.801Z,75.43
2019-01-28T21:57:06.948Z,75.67
2019-01-28T22:01:04.795Z,75.76
2019-01-28T22:03:09.441Z,75.96
2019-01-28T22:07:04.763Z,75.70
2019-01-28T22:09:04.795Z,75.66
2019-01-28T22:13:08.709Z,75.63
2019-01-28T22:15:04.784Z,75.63
2019-01-28T22:19:04.799Z,75.48
2019-01-28T22:21:08.577Z,75.72
2019-01-28T22:25:07.014Z,75.75
2019-01-28T22:27:04.761Z,75.88
2019-01-28T22:31:05.620Z,75.38
2019-01-28T22:33:04.792Z,75.68
2019-01-28T22:37:06.631Z,75.69
2019-01-28T22:39:06.999Z,75.72
2019-01-28T22:43:04.796Z,75.57
2019-01-28T22:45:09.180Z,75.64
2019-01-28T22:49:08.437Z,75.66
2019-01-28T22:51:04.807Z,75.69
2019-01-28T22:55:04.826Z,75.61
2019-01-28T22:57:04.841Z,75.37
2019-01-28T23:01:04.822Z,75.74
2019-01-28T23:03:04.826Z,75.52
2019-01-28T23:07:04.826Z,75.39
2019-01-28T23:09:04.834Z,75.65
2019-01-28T23:13:04.839Z,75.73
2019-01-28T23:15:04.915Z,75.71
2019-01-28T23:19:08.512Z,75.39
2019-01-28T23:21:07.154Z,75.62
2019-01-28T23:25:04.835Z,75.77
2019-01-28T23:27:04.853Z,75.49
2019-01-28T23:31:04.875Z,75.68
2019-01-28T23:33:08.610Z,75.94
2019-01-28T23:37:09.309Z,75.13
2019-01-28T23:39:04.850Z,75.46
2019-01-28T23:43:06.633Z,75.48
2019-01-28T23:45:04.875Z,75.51
2019-01-28T23:49:07.334Z,75.70
2019-01-28T23:51:05.038Z,75.33
2019-01-28T23:55:09.512Z,75.57
2019-01-28T23:57:04.866Z,75.37
